sensor_id;sensor_type;location;lat;lon;timestamp;pressure;altitude;pressure_sealevel;temperature;humidity
78206;BME280;67480;48.920;12.880;2023-12-22T00:20:58;95177.09;;;2.22;72.62
78206;BME280;67480;48.920;12.880;2023-12-22T00:27:43;95184.88;;;2.22;72.23
78206;BME280;67480;48.920;12.880;2023-12-22T01:25:17;95193.47;;;2.11;70.48
78206;BME280;67480;48.920;12.880;2023-12-22T01:32:07;95212.34;;;2.18;69.98
78206;BME280;67480;48.920;12.880;2023-12-22T03:58:51;95283.84;;;1.67;73.15
78206;BME280;67480;48.920;12.880;2023-12-22T05:50:34;95328.44;;;1.46;72.83
78206;BME280;67480;48.920;12.880;2023-12-22T06:25:11;95356.34;;;1.32;73.72
78206;BME280;67480;48.920;12.880;2023-12-22T06:52:12;95351.41;;;1.30;73.44
78206;BME280;67480;48.920;12.880;2023-12-22T06:55:24;95342.44;;;1.26;73.35
78206;BME280;67480;48.920;12.880;2023-12-22T07:12:12;95392.75;;;1.25;73.22
78206;BME280;67480;48.920;12.880;2023-12-22T07:56:05;95410.91;;;1.25;73.22
78206;BME280;67480;48.920;12.880;2023-12-22T07:59:16;95421.69;;;1.22;72.99
78206;BME280;67480;48.920;12.880;2023-12-22T08:05:33;95427.59;;;1.29;73.29
78206;BME280;67480;48.920;12.880;2023-12-22T08:32:32;95466.00;;;1.39;73.19
78206;BME280;67480;48.920;12.880;2023-12-22T12:14:00;95410.78;;;1.99;72.28
78206;BME280;67480;48.920;12.880;2023-12-22T12:29:27;95388.34;;;2.05;71.92
78206;BME280;67480;48.920;12.880;2023-12-22T12:32:02;95398.81;;;1.98;71.94
78206;BME280;67480;48.920;12.880;2023-12-22T12:34:28;95406.63;;;1.98;72.19
78206;BME280;67480;48.920;12.880;2023-12-22T12:36:54;95418.00;;;1.97;72.07
78206;BME280;67480;48.920;12.880;2023-12-22T12:39:22;95418.88;;;1.91;72.18
78206;BME280;67480;48.920;12.880;2023-12-22T12:41:53;95414.44;;;1.80;72.49
78206;BME280;67480;48.920;12.880;2023-12-22T12:44:20;95405.72;;;1.74;72.87
78206;BME280;67480;48.920;12.880;2023-12-22T12:46:49;95425.91;;;1.72;73.09
78206;BME280;67480;48.920;12.880;2023-12-22T12:49:15;95398.03;;;1.67;72.46
78206;BME280;67480;48.920;12.880;2023-12-22T12:51:47;95387.66;;;1.67;72.79
78206;BME280;67480;48.920;12.880;2023-12-22T12:54:17;95386.06;;;1.66;73.32
78206;BME280;67480;48.920;12.880;2023-12-22T12:56:50;95382.53;;;1.61;73.35
78206;BME280;67480;48.920;12.880;2023-12-22T12:59:19;95380.50;;;1.63;73.75
78206;BME280;67480;48.920;12.880;2023-12-22T13:01:47;95387.72;;;1.61;73.85
78206;BME280;67480;48.920;12.880;2023-12-22T13:04:18;95376.22;;;1.57;73.56
78206;BME280;67480;48.920;12.880;2023-12-22T13:06:50;95369.22;;;1.57;73.63
78206;BME280;67480;48.920;12.880;2023-12-22T13:09:17;95368.19;;;1.58;74.06
78206;BME280;67480;48.920;12.880;2023-12-22T13:11:44;95357.41;;;1.61;73.68
78206;BME280;67480;48.920;12.880;2023-12-22T13:14:29;95351.50;;;1.54;74.03
78206;BME280;67480;48.920;12.880;2023-12-22T13:16:56;95354.44;;;1.58;74.00
78206;BME280;67480;48.920;12.880;2023-12-22T13:19:26;95346.44;;;1.59;74.06
78206;BME280;67480;48.920;12.880;2023-12-22T13:21:58;95347.03;;;1.61;74.03
78206;BME280;67480;48.920;12.880;2023-12-22T13:24:24;95345.06;;;1.57;74.49
78206;BME280;67480;48.920;12.880;2023-12-22T13:27:03;95333.47;;;1.59;74.27
78206;BME280;67480;48.920;12.880;2023-12-22T13:29:42;95329.06;;;1.60;74.55
78206;BME280;67480;48.920;12.880;2023-12-22T13:32:18;95304.78;;;1.54;74.94
78206;BME280;67480;48.920;12.880;2023-12-22T13:34:48;95315.16;;;1.54;74.96
78206;BME280;67480;48.920;12.880;2023-12-22T13:37:14;95313.66;;;1.46;74.94
78206;BME280;67480;48.920;12.880;2023-12-22T13:39:40;95309.19;;;1.53;75.38
78206;BME280;67480;48.920;12.880;2023-12-22T13:42:14;95313.94;;;1.57;74.94
78206;BME280;67480;48.920;12.880;2023-12-22T13:44:46;95298.03;;;1.53;75.46
78206;BME280;67480;48.920;12.880;2023-12-22T13:47:18;95301.84;;;1.50;75.35
78206;BME280;67480;48.920;12.880;2023-12-22T13:49:45;95296.44;;;1.52;75.46
78206;BME280;67480;48.920;12.880;2023-12-22T13:52:30;95276.25;;;1.54;75.55
78206;BME280;67480;48.920;12.880;2023-12-22T13:55:00;95267.91;;;1.52;75.65
78206;BME280;67480;48.920;12.880;2023-12-22T13:57:27;95246.16;;;1.53;76.06
78206;BME280;67480;48.920;12.880;2023-12-22T13:59:53;95255.63;;;1.59;75.34
78206;BME280;67480;48.920;12.880;2023-12-22T14:02:22;95255.19;;;1.62;75.52
78206;BME280;67480;48.920;12.880;2023-12-22T14:04:51;95259.00;;;1.60;75.77
78206;BME280;67480;48.920;12.880;2023-12-22T14:07:16;95265.88;;;1.54;76.23
78206;BME280;67480;48.920;12.880;2023-12-22T14:09:42;95258.44;;;1.58;75.98
78206;BME280;67480;48.920;12.880;2023-12-22T14:12:08;95248.50;;;1.54;76.07
78206;BME280;67480;48.920;12.880;2023-12-22T14:14:33;95251.69;;;1.57;76.39
78206;BME280;67480;48.920;12.880;2023-12-22T14:16:58;95235.22;;;1.63;75.99
78206;BME280;67480;48.920;12.880;2023-12-22T14:19:24;95239.16;;;1.65;76.22
78206;BME280;67480;48.920;12.880;2023-12-22T14:21:49;95235.22;;;1.63;76.10
78206;BME280;67480;48.920;12.880;2023-12-22T14:24:14;95238.84;;;1.73;75.93
78206;BME280;67480;48.920;12.880;2023-12-22T14:26:53;95232.63;;;1.74;76.41
78206;BME280;67480;48.920;12.880;2023-12-22T14:29:20;95222.25;;;1.74;76.48
78206;BME280;67480;48.920;12.880;2023-12-22T14:31:50;95214.59;;;1.80;75.86
78206;BME280;67480;48.920;12.880;2023-12-22T14:34:16;95215.94;;;1.82;75.82
78206;BME280;67480;48.920;12.880;2023-12-22T14:36:42;95221.25;;;1.87;75.79
78206;BME280;67480;48.920;12.880;2023-12-22T14:39:08;95231.66;;;1.87;75.91
78206;BME280;67480;48.920;12.880;2023-12-22T14:41:36;95214.59;;;1.91;75.93
78206;BME280;67480;48.920;12.880;2023-12-22T14:44:01;95230.53;;;1.95;75.96
78206;BME280;67480;48.920;12.880;2023-12-22T14:46:30;95213.94;;;1.96;76.07
78206;BME280;67480;48.920;12.880;2023-12-22T14:48:59;95208.63;;;1.91;76.81
78206;BME280;67480;48.920;12.880;2023-12-22T14:51:24;95214.06;;;1.89;76.99
78206;BME280;67480;48.920;12.880;2023-12-22T14:53:50;95188.19;;;1.94;76.49
78206;BME280;67480;48.920;12.880;2023-12-22T14:56:16;95197.22;;;1.92;76.51
78206;BME280;67480;48.920;12.880;2023-12-22T14:58:42;95211.34;;;1.96;76.40
78206;BME280;67480;48.920;12.880;2023-12-22T15:01:13;95205.47;;;2.01;76.85
78206;BME280;67480;48.920;12.880;2023-12-22T15:03:39;95224.97;;;2.03;76.77
78206;BME280;67480;48.920;12.880;2023-12-22T15:06:04;95211.56;;;2.06;77.04
78206;BME280;67480;48.920;12.880;2023-12-22T15:08:30;95207.28;;;2.12;76.50
78206;BME280;67480;48.920;12.880;2023-12-22T15:10:55;95214.94;;;2.18;76.39
78206;BME280;67480;48.920;12.880;2023-12-22T15:13:21;95210.53;;;2.19;75.62
78206;BME280;67480;48.920;12.880;2023-12-22T15:15:46;95215.06;;;2.24;75.64
78206;BME280;67480;48.920;12.880;2023-12-22T15:18:12;95220.25;;;2.24;76.16
78206;BME280;67480;48.920;12.880;2023-12-22T15:20:37;95233.13;;;2.18;76.49
78206;BME280;67480;48.920;12.880;2023-12-22T15:23:03;95227.25;;;2.11;76.71
78206;BME280;67480;48.920;12.880;2023-12-22T15:25:28;95234.47;;;2.21;76.39
78206;BME280;67480;48.920;12.880;2023-12-22T15:27:54;95226.81;;;2.26;76.10
78206;BME280;67480;48.920;12.880;2023-12-22T15:30:19;95211.44;;;2.25;76.64
78206;BME280;67480;48.920;12.880;2023-12-22T15:32:51;95234.94;;;2.30;76.01
78206;BME280;67480;48.920;12.880;2023-12-22T15:35:29;95227.34;;;2.28;76.46
78206;BME280;67480;48.920;12.880;2023-12-22T15:37:59;95219.78;;;2.27;76.17
78206;BME280;67480;48.920;12.880;2023-12-22T15:40:25;95212.78;;;2.27;76.46
78206;BME280;67480;48.920;12.880;2023-12-22T15:42:50;95224.28;;;2.31;76.63
78206;BME280;67480;48.920;12.880;2023-12-22T15:45:16;95222.50;;;2.32;77.10
78206;BME280;67480;48.920;12.880;2023-12-22T15:47:41;95234.59;;;2.38;76.59
78206;BME280;67480;48.920;12.880;2023-12-22T15:50:07;95235.16;;;2.40;76.58
78206;BME280;67480;48.920;12.880;2023-12-22T15:52:34;95237.28;;;2.43;76.71
78206;BME280;67480;48.920;12.880;2023-12-22T15:55:00;95259.31;;;2.52;76.63
78206;BME280;67480;48.920;12.880;2023-12-22T15:57:26;95265.75;;;2.50;76.13
78206;BME280;67480;48.920;12.880;2023-12-22T15:59:53;95260.66;;;2.55;76.31
78206;BME280;67480;48.920;12.880;2023-12-22T16:02:18;95240.09;;;2.53;77.22
78206;BME280;67480;48.920;12.880;2023-12-22T16:04:44;95260.41;;;2.56;76.63
78206;BME280;67480;48.920;12.880;2023-12-22T16:07:13;95272.41;;;2.57;76.53
78206;BME280;67480;48.920;12.880;2023-12-22T16:09:38;95252.72;;;2.61;76.43
78206;BME280;67480;48.920;12.880;2023-12-22T16:12:05;95264.16;;;2.60;76.45
78206;BME280;67480;48.920;12.880;2023-12-22T16:14:33;95277.16;;;2.60;76.53
78206;BME280;67480;48.920;12.880;2023-12-22T16:17:00;95265.50;;;2.63;76.68
78206;BME280;67480;48.920;12.880;2023-12-22T16:19:27;95280.63;;;2.66;76.80
78206;BME280;67480;48.920;12.880;2023-12-22T16:21:52;95270.47;;;2.64;76.59
78206;BME280;67480;48.920;12.880;2023-12-22T16:24:21;95284.81;;;2.67;76.23
78206;BME280;67480;48.920;12.880;2023-12-22T16:26:47;95289.78;;;2.69;76.10
78206;BME280;67480;48.920;12.880;2023-12-22T16:29:12;95291.34;;;2.70;75.82
78206;BME280;67480;48.920;12.880;2023-12-22T16:31:41;95296.09;;;2.73;75.86
78206;BME280;67480;48.920;12.880;2023-12-22T16:34:06;95288.88;;;2.75;75.67
78206;BME280;67480;48.920;12.880;2023-12-22T16:36:32;95278.69;;;2.73;75.55
78206;BME280;67480;48.920;12.880;2023-12-22T16:38:57;95288.88;;;2.75;75.58
78206;BME280;67480;48.920;12.880;2023-12-22T16:41:23;95279.03;;;2.77;75.35
78206;BME280;67480;48.920;12.880;2023-12-22T16:43:48;95284.47;;;2.75;75.48
78206;BME280;67480;48.920;12.880;2023-12-22T16:46:19;95297.00;;;2.78;75.36
78206;BME280;67480;48.920;12.880;2023-12-22T16:48:44;95299.59;;;2.78;75.85
78206;BME280;67480;48.920;12.880;2023-12-22T16:51:10;95319.16;;;2.81;75.64
78206;BME280;67480;48.920;12.880;2023-12-22T16:53:36;95313.63;;;2.77;76.08
78206;BME280;67480;48.920;12.880;2023-12-22T16:56:01;95307.06;;;2.75;75.96
78206;BME280;67480;48.920;12.880;2023-12-22T16:58:27;95327.28;;;2.73;76.54
78206;BME280;67480;48.920;12.880;2023-12-22T17:00:52;95314.41;;;2.78;76.35
78206;BME280;67480;48.920;12.880;2023-12-22T17:03:18;95309.78;;;2.80;76.13
78206;BME280;67480;48.920;12.880;2023-12-22T17:05:43;95300.94;;;2.81;75.95
78206;BME280;67480;48.920;12.880;2023-12-22T17:08:09;95302.06;;;2.85;75.89
78206;BME280;67480;48.920;12.880;2023-12-22T17:10:36;95301.53;;;2.83;76.15
78206;BME280;67480;48.920;12.880;2023-12-22T17:13:01;95300.75;;;2.82;75.47
78206;BME280;67480;48.920;12.880;2023-12-22T17:15:26;95291.00;;;2.78;76.33
78206;BME280;67480;48.920;12.880;2023-12-22T17:17:52;95297.78;;;2.79;76.69
78206;BME280;67480;48.920;12.880;2023-12-22T17:20:17;95285.13;;;2.82;76.40
78206;BME280;67480;48.920;12.880;2023-12-22T17:22:43;95299.72;;;2.83;75.92
78206;BME280;67480;48.920;12.880;2023-12-22T17:25:08;95301.53;;;2.83;76.38
78206;BME280;67480;48.920;12.880;2023-12-22T17:27:34;95308.97;;;2.91;75.84
78206;BME280;67480;48.920;12.880;2023-12-22T17:29:59;95308.41;;;2.89;76.10
78206;BME280;67480;48.920;12.880;2023-12-22T17:32:24;95292.69;;;2.84;76.59
78206;BME280;67480;48.920;12.880;2023-12-22T17:34:50;95305.81;;;2.89;76.20
78206;BME280;67480;48.920;12.880;2023-12-22T17:37:19;95308.50;;;2.94;76.01
78206;BME280;67480;48.920;12.880;2023-12-22T17:39:47;95300.50;;;2.84;76.47
78206;BME280;67480;48.920;12.880;2023-12-22T17:42:13;95322.50;;;2.93;76.51
78206;BME280;67480;48.920;12.880;2023-12-22T17:44:38;95293.69;;;2.95;76.14
78206;BME280;67480;48.920;12.880;2023-12-22T17:47:04;95300.81;;;2.99;75.84
78206;BME280;67480;48.920;12.880;2023-12-22T17:49:30;95314.34;;;3.01;75.72
78206;BME280;67480;48.920;12.880;2023-12-22T17:51:55;95296.88;;;2.97;76.22
78206;BME280;67480;48.920;12.880;2023-12-22T17:54:21;95284.66;;;2.97;75.95
78206;BME280;67480;48.920;12.880;2023-12-22T17:56:47;95284.97;;;3.01;75.96
78206;BME280;67480;48.920;12.880;2023-12-22T17:59:13;95282.69;;;3.04;75.89
78206;BME280;67480;48.920;12.880;2023-12-22T18:01:42;95274.88;;;3.04;75.77
78206;BME280;67480;48.920;12.880;2023-12-22T18:04:07;95308.69;;;3.04;75.96
78206;BME280;67480;48.920;12.880;2023-12-22T18:06:33;95293.66;;;3.06;76.17
78206;BME280;67480;48.920;12.880;2023-12-22T18:08:59;95317.19;;;3.00;76.21
78206;BME280;67480;48.920;12.880;2023-12-22T18:11:24;95317.66;;;2.97;76.62
78206;BME280;67480;48.920;12.880;2023-12-22T18:13:49;95313.34;;;3.02;76.12
78206;BME280;67480;48.920;12.880;2023-12-22T18:16:18;95317.53;;;3.03;76.25
78206;BME280;67480;48.920;12.880;2023-12-22T18:18:44;95294.69;;;3.05;75.97
78206;BME280;67480;48.920;12.880;2023-12-22T18:23:47;95291.38;;;3.10;75.79
78206;BME280;67480;48.920;12.880;2023-12-22T18:26:13;95289.13;;;3.14;75.47
78206;BME280;67480;48.920;12.880;2023-12-22T18:28:41;95287.44;;;3.07;76.35
78206;BME280;67480;48.920;12.880;2023-12-22T18:31:12;95269.69;;;3.04;76.34
78206;BME280;67480;48.920;12.880;2023-12-22T18:33:37;95272.38;;;3.09;76.21
78206;BME280;67480;48.920;12.880;2023-12-22T18:36:03;95274.31;;;3.14;75.94
78206;BME280;67480;48.920;12.880;2023-12-22T18:38:30;95260.97;;;3.10;76.26
78206;BME280;67480;48.920;12.880;2023-12-22T18:40:56;95260.53;;;3.14;76.38
78206;BME280;67480;48.920;12.880;2023-12-22T18:43:21;95261.78;;;3.11;75.95
78206;BME280;67480;48.920;12.880;2023-12-22T18:45:47;95258.00;;;3.19;75.73
78206;BME280;67480;48.920;12.880;2023-12-22T18:48:13;95276.44;;;3.17;76.75
78206;BME280;67480;48.920;12.880;2023-12-22T18:50:39;95258.28;;;3.34;76.27
78206;BME280;67480;48.920;12.880;2023-12-22T18:53:05;95267.03;;;3.28;75.90
78206;BME280;67480;48.920;12.880;2023-12-22T18:55:31;95270.16;;;3.30;75.47
78206;BME280;67480;48.920;12.880;2023-12-22T18:57:57;95266.00;;;3.29;76.54
78206;BME280;67480;48.920;12.880;2023-12-22T19:00:22;95266.56;;;3.31;75.87
78206;BME280;67480;48.920;12.880;2023-12-22T19:02:49;95277.53;;;3.33;75.33
78206;BME280;67480;48.920;12.880;2023-12-22T19:05:14;95286.91;;;3.34;74.92
78206;BME280;67480;48.920;12.880;2023-12-22T19:07:40;95281.44;;;3.35;75.09
78206;BME280;67480;48.920;12.880;2023-12-22T19:10:05;95298.88;;;3.35;74.46
78206;BME280;67480;48.920;12.880;2023-12-22T19:12:31;95277.75;;;3.31;75.17
78206;BME280;67480;48.920;12.880;2023-12-22T19:14:56;95294.13;;;3.32;75.20
78206;BME280;67480;48.920;12.880;2023-12-22T19:17:22;95278.63;;;3.37;75.29
78206;BME280;67480;48.920;12.880;2023-12-22T19:19:47;95289.72;;;3.44;75.72
78206;BME280;67480;48.920;12.880;2023-12-22T19:22:16;95273.53;;;3.42;75.39
78206;BME280;67480;48.920;12.880;2023-12-22T19:24:43;95274.22;;;3.38;75.46
78206;BME280;67480;48.920;12.880;2023-12-22T19:27:08;95264.38;;;3.40;74.71
78206;BME280;67480;48.920;12.880;2023-12-22T19:29:34;95285.41;;;3.38;75.71
78206;BME280;67480;48.920;12.880;2023-12-22T19:31:59;95278.41;;;3.39;75.14
78206;BME280;67480;48.920;12.880;2023-12-22T19:34:25;95279.84;;;3.46;74.71
78206;BME280;67480;48.920;12.880;2023-12-22T19:36:52;95275.44;;;3.47;74.70
78206;BME280;67480;48.920;12.880;2023-12-22T19:39:18;95262.34;;;3.42;75.84
78206;BME280;67480;48.920;12.880;2023-12-22T19:41:44;95252.38;;;3.50;75.10
78206;BME280;67480;48.920;12.880;2023-12-22T19:44:09;95280.53;;;3.53;75.37
78206;BME280;67480;48.920;12.880;2023-12-22T19:46:35;95284.00;;;3.59;76.19
78206;BME280;67480;48.920;12.880;2023-12-22T19:49:01;95283.69;;;3.55;75.11
78206;BME280;67480;48.920;12.880;2023-12-22T19:51:26;95281.63;;;3.57;75.15
78206;BME280;67480;48.920;12.880;2023-12-22T19:53:53;95300.88;;;3.56;74.37
78206;BME280;67480;48.920;12.880;2023-12-22T19:56:18;95304.94;;;3.52;75.57
78206;BME280;67480;48.920;12.880;2023-12-22T19:58:44;95302.28;;;3.47;75.51
78206;BME280;67480;48.920;12.880;2023-12-22T20:01:10;95331.91;;;3.46;75.53
78206;BME280;67480;48.920;12.880;2023-12-22T20:03:36;95315.59;;;3.51;75.24
78206;BME280;67480;48.920;12.880;2023-12-22T20:06:02;95307.47;;;3.47;75.55
78206;BME280;67480;48.920;12.880;2023-12-22T20:08:29;95305.41;;;3.49;75.22
78206;BME280;67480;48.920;12.880;2023-12-22T20:10:55;95321.91;;;3.55;74.58
78206;BME280;67480;48.920;12.880;2023-12-22T20:13:20;95310.16;;;3.52;75.66
78206;BME280;67480;48.920;12.880;2023-12-22T20:15:48;95323.72;;;3.54;76.49
78206;BME280;67480;48.920;12.880;2023-12-22T20:18:14;95308.69;;;3.56;75.30
78206;BME280;67480;48.920;12.880;2023-12-22T20:20:40;95310.34;;;3.63;74.41
78206;BME280;67480;48.920;12.880;2023-12-22T20:23:05;95316.59;;;3.62;74.08
78206;BME280;67480;48.920;12.880;2023-12-22T20:25:32;95321.22;;;3.60;74.83
78206;BME280;67480;48.920;12.880;2023-12-22T20:27:58;95300.50;;;3.65;75.44
78206;BME280;67480;48.920;12.880;2023-12-22T20:30:25;95300.59;;;3.70;74.27
78206;BME280;67480;48.920;12.880;2023-12-22T20:32:51;95293.31;;;3.72;74.01
78206;BME280;67480;48.920;12.880;2023-12-22T20:35:17;95290.25;;;3.75;75.45
78206;BME280;67480;48.920;12.880;2023-12-22T20:37:43;95296.47;;;3.74;73.98
78206;BME280;67480;48.920;12.880;2023-12-22T20:40:08;95302.56;;;3.79;74.83
78206;BME280;67480;48.920;12.880;2023-12-22T20:42:36;95303.50;;;3.73;75.04
78206;BME280;67480;48.920;12.880;2023-12-22T20:45:02;95301.69;;;3.74;74.50
78206;BME280;67480;48.920;12.880;2023-12-22T20:47:27;95289.44;;;3.74;73.79
78206;BME280;67480;48.920;12.880;2023-12-22T20:49:53;95321.47;;;3.75;73.86
78206;BME280;67480;48.920;12.880;2023-12-22T20:52:19;95304.53;;;3.72;74.00
78206;BME280;67480;48.920;12.880;2023-12-22T20:54:44;95311.06;;;3.75;75.83
78206;BME280;67480;48.920;12.880;2023-12-22T20:57:10;95286.06;;;3.74;75.28
78206;BME280;67480;48.920;12.880;2023-12-22T20:59:35;95284.50;;;3.73;76.27
78206;BME280;67480;48.920;12.880;2023-12-22T21:02:03;95331.34;;;3.73;74.86
78206;BME280;67480;48.920;12.880;2023-12-22T21:04:29;95335.16;;;3.82;74.47
78206;BME280;67480;48.920;12.880;2023-12-22T21:06:54;95323.97;;;3.82;73.72
78206;BME280;67480;48.920;12.880;2023-12-22T21:09:19;95323.81;;;3.88;74.25
78206;BME280;67480;48.920;12.880;2023-12-22T21:11:45;95311.03;;;3.87;74.71
78206;BME280;67480;48.920;12.880;2023-12-22T21:14:11;95322.44;;;3.86;73.95
78206;BME280;67480;48.920;12.880;2023-12-22T21:16:36;95325.94;;;3.91;75.66
78206;BME280;67480;48.920;12.880;2023-12-22T21:19:07;95319.72;;;3.92;75.36
78206;BME280;67480;48.920;12.880;2023-12-22T21:21:33;95335.56;;;3.91;73.84
78206;BME280;67480;48.920;12.880;2023-12-22T21:23:58;95329.78;;;3.89;73.76
78206;BME280;67480;48.920;12.880;2023-12-22T21:26:24;95313.38;;;3.88;73.85
78206;BME280;67480;48.920;12.880;2023-12-22T21:28:49;95312.81;;;3.86;72.78
78206;BME280;67480;48.920;12.880;2023-12-22T21:31:14;95302.75;;;3.90;74.38
78206;BME280;67480;48.920;12.880;2023-12-22T21:33:40;95314.97;;;3.89;73.74
78206;BME280;67480;48.920;12.880;2023-12-22T21:36:06;95310.41;;;3.96;74.48
78206;BME280;67480;48.920;12.880;2023-12-22T21:38:31;95313.16;;;3.90;75.16
78206;BME280;67480;48.920;12.880;2023-12-22T21:40:59;95319.00;;;3.97;74.75
78206;BME280;67480;48.920;12.880;2023-12-22T21:43:25;95320.41;;;3.88;74.83
78206;BME280;67480;48.920;12.880;2023-12-22T21:45:50;95309.13;;;3.82;75.38
78206;BME280;67480;48.920;12.880;2023-12-22T21:48:16;95319.53;;;3.82;75.13
78206;BME280;67480;48.920;12.880;2023-12-22T21:50:41;95334.22;;;3.88;75.16
78206;BME280;67480;48.920;12.880;2023-12-22T21:53:07;95322.78;;;3.89;74.64
78206;BME280;67480;48.920;12.880;2023-12-22T21:55:34;95334.47;;;3.87;75.23
78206;BME280;67480;48.920;12.880;2023-12-22T21:58:00;95321.84;;;3.95;75.01
78206;BME280;67480;48.920;12.880;2023-12-22T22:00:25;95295.72;;;3.90;74.07
78206;BME280;67480;48.920;12.880;2023-12-22T22:02:51;95310.31;;;3.91;73.95
78206;BME280;67480;48.920;12.880;2023-12-22T22:05:16;95320.03;;;3.96;74.03
78206;BME280;67480;48.920;12.880;2023-12-22T22:07:41;95338.94;;;3.91;73.94
78206;BME280;67480;48.920;12.880;2023-12-22T22:10:07;95328.06;;;3.94;74.00
78206;BME280;67480;48.920;12.880;2023-12-22T22:12:33;95354.44;;;3.98;74.05
78206;BME280;67480;48.920;12.880;2023-12-22T22:14:58;95337.00;;;3.98;73.94
78206;BME280;67480;48.920;12.880;2023-12-22T22:17:23;95349.00;;;3.99;73.72
78206;BME280;67480;48.920;12.880;2023-12-22T22:19:49;95350.34;;;4.02;73.72
78206;BME280;67480;48.920;12.880;2023-12-22T22:22:14;95337.56;;;4.00;73.30
78206;BME280;67480;48.920;12.880;2023-12-22T22:24:39;95334.41;;;3.98;73.75
78206;BME280;67480;48.920;12.880;2023-12-22T22:27:05;95362.00;;;3.99;73.42
78206;BME280;67480;48.920;12.880;2023-12-22T22:29:31;95342.22;;;3.98;73.73
78206;BME280;67480;48.920;12.880;2023-12-22T22:31:56;95342.78;;;4.00;74.91
78206;BME280;67480;48.920;12.880;2023-12-22T22:34:22;95341.97;;;4.00;74.73
78206;BME280;67480;48.920;12.880;2023-12-22T22:36:47;95356.34;;;4.03;74.09
78206;BME280;67480;48.920;12.880;2023-12-22T22:39:14;95341.25;;;4.05;73.89
78206;BME280;67480;48.920;12.880;2023-12-22T22:41:41;95332.09;;;4.02;73.53
78206;BME280;67480;48.920;12.880;2023-12-22T22:44:06;95371.16;;;4.02;73.15
78206;BME280;67480;48.920;12.880;2023-12-22T22:46:31;95343.88;;;4.05;74.02
78206;BME280;67480;48.920;12.880;2023-12-22T22:48:58;95356.97;;;4.10;73.25
78206;BME280;67480;48.920;12.880;2023-12-22T22:51:25;95349.06;;;4.05;73.53
78206;BME280;67480;48.920;12.880;2023-12-22T22:53:51;95356.34;;;4.03;73.85
78206;BME280;67480;48.920;12.880;2023-12-22T22:56:17;95377.94;;;4.03;73.72
78206;BME280;67480;48.920;12.880;2023-12-22T22:58:43;95394.06;;;4.00;74.82
78206;BME280;67480;48.920;12.880;2023-12-22T23:01:10;95362.88;;;4.05;74.14
78206;BME280;67480;48.920;12.880;2023-12-22T23:03:35;95383.03;;;4.10;74.30
78206;BME280;67480;48.920;12.880;2023-12-22T23:06:05;95374.66;;;4.08;73.87
78206;BME280;67480;48.920;12.880;2023-12-22T23:08:31;95379.31;;;4.06;74.03
78206;BME280;67480;48.920;12.880;2023-12-22T23:10:57;95390.06;;;4.09;74.19
78206;BME280;67480;48.920;12.880;2023-12-22T23:13:23;95406.56;;;4.15;73.66
78206;BME280;67480;48.920;12.880;2023-12-22T23:15:48;95388.34;;;4.15;74.04
78206;BME280;67480;48.920;12.880;2023-12-22T23:18:13;95366.28;;;4.22;72.91
78206;BME280;67480;48.920;12.880;2023-12-22T23:20:39;95341.50;;;4.20;73.25
78206;BME280;67480;48.920;12.880;2023-12-22T23:23:04;95376.41;;;4.19;73.62
78206;BME280;67480;48.920;12.880;2023-12-22T23:25:30;95397.41;;;4.12;73.70
78206;BME280;67480;48.920;12.880;2023-12-22T23:27:55;95401.84;;;4.12;73.78
78206;BME280;67480;48.920;12.880;2023-12-22T23:30:20;95397.72;;;4.16;73.73
78206;BME280;67480;48.920;12.880;2023-12-22T23:32:46;95412.56;;;4.15;73.75
78206;BME280;67480;48.920;12.880;2023-12-22T23:35:11;95396.16;;;4.15;73.07
78206;BME280;67480;48.920;12.880;2023-12-22T23:37:37;95405.34;;;4.06;74.24
78206;BME280;67480;48.920;12.880;2023-12-22T23:40:02;95402.28;;;4.09;73.24
78206;BME280;67480;48.920;12.880;2023-12-22T23:42:28;95411.91;;;4.08;74.07
78206;BME280;67480;48.920;12.880;2023-12-22T23:44:54;95395.03;;;4.11;74.58
78206;BME280;67480;48.920;12.880;2023-12-22T23:47:19;95399.53;;;4.15;73.87
78206;BME280;67480;48.920;12.880;2023-12-22T23:49:44;95394.56;;;4.14;73.35
78206;BME280;67480;48.920;12.880;2023-12-22T23:52:10;95392.50;;;4.16;73.68
78206;BME280;67480;48.920;12.880;2023-12-22T23:54:35;95434.28;;;4.21;72.97
78206;BME280;67480;48.920;12.880;2023-12-22T23:57:01;95404.97;;;4.14;73.88
78206;BME280;67480;48.920;12.880;2023-12-22T23:59:26;95399.22;;;4.12;73.29
